sensor_id;sensor_type;location;lat;lon;timestamp;P1;durP1;ratioP1;P2;durP2;ratioP2
34920;SDS011;21128;50.016;20.002;2022-10-17T00:01:25;14.43;;;10.27;;
34920;SDS011;21128;50.016;20.002;2022-10-17T00:03:52;12.20;;;9.53;;
34920;SDS011;21128;50.016;20.002;2022-10-17T00:06:25;14.23;;;10.57;;
34920;SDS011;21128;50.016;20.002;2022-10-17T00:09:05;19.17;;;10.30;;
34920;SDS011;21128;50.016;20.002;2022-10-17T00:11:32;14.43;;;10.43;;
34920;SDS011;21128;50.016;20.002;2022-10-17T00:13:59;18.20;;;11.10;;
34920;SDS011;21128;50.016;20.002;2022-10-17T00:16:33;15.13;;;10.23;;
34920;SDS011;21128;50.016;20.002;2022-10-17T00:19:08;16.47;;;10.90;;
34920;SDS011;21128;50.016;20.002;2022-10-17T00:21:41;18.40;;;11.23;;
34920;SDS011;21128;50.016;20.002;2022-10-17T00:24:08;16.50;;;10.90;;
34920;SDS011;21128;50.016;20.002;2022-10-17T00:26:48;15.27;;;10.93;;
34920;SDS011;21128;50.016;20.002;2022-10-17T00:29:22;19.03;;;10.77;;
34920;SDS011;21128;50.016;20.002;2022-10-17T00:32:02;19.57;;;10.80;;
34920;SDS011;21128;50.016;20.002;2022-10-17T00:34:29;24.03;;;12.33;;
34920;SDS011;21128;50.016;20.002;2022-10-17T00:37:03;18.70;;;12.43;;
34920;SDS011;21128;50.016;20.002;2022-10-17T00:39:43;24.77;;;13.70;;
34920;SDS011;21128;50.016;20.002;2022-10-17T00:42:13;22.95;;;14.95;;
34920;SDS011;21128;50.016;20.002;2022-10-17T00:47:19;18.00;;;12.65;;
34920;SDS011;21128;50.016;20.002;2022-10-17T00:50:02;20.67;;;11.83;;
34920;SDS011;21128;50.016;20.002;2022-10-17T00:52:39;18.97;;;11.17;;
34920;SDS011;21128;50.016;20.002;2022-10-17T00:55:15;18.43;;;11.80;;
34920;SDS011;21128;50.016;20.002;2022-10-17T00:57:46;21.60;;;12.70;;
34920;SDS011;21128;50.016;20.002;2022-10-17T01:00:14;21.73;;;12.63;;
34920;SDS011;21128;50.016;20.002;2022-10-17T01:02:49;23.77;;;13.80;;
34920;SDS011;21128;50.016;20.002;2022-10-17T01:05:16;24.25;;;12.33;;
34920;SDS011;21128;50.016;20.002;2022-10-17T01:07:51;19.17;;;12.00;;
34920;SDS011;21128;50.016;20.002;2022-10-17T01:10:19;25.15;;;14.45;;
34920;SDS011;21128;50.016;20.002;2022-10-17T01:13:05;23.47;;;13.18;;
34920;SDS011;21128;50.016;20.002;2022-10-17T01:16:09;24.40;;;13.50;;
34920;SDS011;21128;50.016;20.002;2022-10-17T01:19:25;25.63;;;13.87;;
34920;SDS011;21128;50.016;20.002;2022-10-17T01:21:57;25.10;;;14.43;;
34920;SDS011;21128;50.016;20.002;2022-10-17T01:36:34;25.90;;;13.97;;
34920;SDS011;21128;50.016;20.002;2022-10-17T01:42:02;22.67;;;12.83;;
34920;SDS011;21128;50.016;20.002;2022-10-17T01:47:46;20.03;;;13.53;;
34920;SDS011;21128;50.016;20.002;2022-10-17T01:50:28;21.30;;;13.60;;
34920;SDS011;21128;50.016;20.002;2022-10-17T01:53:08;19.37;;;12.80;;
34920;SDS011;21128;50.016;20.002;2022-10-17T01:55:40;21.70;;;12.30;;
34920;SDS011;21128;50.016;20.002;2022-10-17T01:58:15;19.80;;;11.80;;
34920;SDS011;21128;50.016;20.002;2022-10-17T02:00:57;20.50;;;13.40;;
34920;SDS011;21128;50.016;20.002;2022-10-17T02:03:27;20.23;;;12.23;;
34920;SDS011;21128;50.016;20.002;2022-10-17T02:05:55;22.63;;;13.13;;
34920;SDS011;21128;50.016;20.002;2022-10-17T02:08:30;22.15;;;14.10;;
34920;SDS011;21128;50.016;20.002;2022-10-17T02:11:13;26.30;;;13.97;;
34920;SDS011;21128;50.016;20.002;2022-10-17T02:14:05;18.73;;;13.33;;
34920;SDS011;21128;50.016;20.002;2022-10-17T02:27:28;25.77;;;16.33;;
34920;SDS011;21128;50.016;20.002;2022-10-17T02:33:11;21.13;;;14.87;;
34920;SDS011;21128;50.016;20.002;2022-10-17T02:35:40;26.47;;;16.30;;
34920;SDS011;21128;50.016;20.002;2022-10-17T02:38:11;22.60;;;15.37;;
34920;SDS011;21128;50.016;20.002;2022-10-17T02:40:48;23.27;;;15.40;;
34920;SDS011;21128;50.016;20.002;2022-10-17T02:43:17;18.90;;;14.20;;
34920;SDS011;21128;50.016;20.002;2022-10-17T02:45:45;22.63;;;13.83;;
34920;SDS011;21128;50.016;20.002;2022-10-17T02:53:49;18.80;;;13.37;;
34920;SDS011;21128;50.016;20.002;2022-10-17T02:56:28;19.87;;;13.47;;
34920;SDS011;21128;50.016;20.002;2022-10-17T02:59:14;21.77;;;12.50;;
34920;SDS011;21128;50.016;20.002;2022-10-17T03:02:04;17.90;;;12.37;;
34920;SDS011;21128;50.016;20.002;2022-10-17T03:04:32;20.05;;;12.80;;
34920;SDS011;21128;50.016;20.002;2022-10-17T03:07:06;24.80;;;14.43;;
34920;SDS011;21128;50.016;20.002;2022-10-17T03:09:39;17.03;;;12.60;;
34920;SDS011;21128;50.016;20.002;2022-10-17T03:12:12;18.32;;;12.28;;
34920;SDS011;21128;50.016;20.002;2022-10-17T03:14:52;20.55;;;12.95;;
34920;SDS011;21128;50.016;20.002;2022-10-17T03:19:52;22.48;;;14.15;;
34920;SDS011;21128;50.016;20.002;2022-10-17T03:22:19;17.70;;;12.10;;
34920;SDS011;21128;50.016;20.002;2022-10-17T03:24:46;20.17;;;13.43;;
34920;SDS011;21128;50.016;20.002;2022-10-17T03:27:13;24.83;;;14.17;;
34920;SDS011;21128;50.016;20.002;2022-10-17T03:29:40;20.40;;;13.73;;
34920;SDS011;21128;50.016;20.002;2022-10-17T03:32:07;27.30;;;15.10;;
34920;SDS011;21128;50.016;20.002;2022-10-17T03:34:34;20.23;;;13.93;;
34920;SDS011;21128;50.016;20.002;2022-10-17T03:37:00;27.20;;;15.93;;
34920;SDS011;21128;50.016;20.002;2022-10-17T03:39:27;24.27;;;15.93;;
34920;SDS011;21128;50.016;20.002;2022-10-17T03:42:00;25.67;;;16.63;;
34920;SDS011;21128;50.016;20.002;2022-10-17T03:44:27;24.20;;;13.93;;
34920;SDS011;21128;50.016;20.002;2022-10-17T03:46:54;23.07;;;13.03;;
34920;SDS011;21128;50.016;20.002;2022-10-17T03:49:21;23.63;;;12.87;;
34920;SDS011;21128;50.016;20.002;2022-10-17T03:51:54;18.27;;;12.57;;
34920;SDS011;21128;50.016;20.002;2022-10-17T03:54:20;20.20;;;12.37;;
34920;SDS011;21128;50.016;20.002;2022-10-17T03:56:47;17.10;;;12.33;;
34920;SDS011;21128;50.016;20.002;2022-10-17T03:59:14;18.20;;;13.03;;
34920;SDS011;21128;50.016;20.002;2022-10-17T04:01:41;20.17;;;11.88;;
34920;SDS011;21128;50.016;20.002;2022-10-17T04:04:08;18.73;;;13.50;;
34920;SDS011;21128;50.016;20.002;2022-10-17T04:06:36;19.75;;;12.00;;
34920;SDS011;21128;50.016;20.002;2022-10-17T04:09:03;23.55;;;15.28;;
34920;SDS011;21128;50.016;20.002;2022-10-17T04:11:32;23.20;;;14.30;;
34920;SDS011;21128;50.016;20.002;2022-10-17T04:13:59;32.70;;;18.25;;
34920;SDS011;21128;50.016;20.002;2022-10-17T04:16:26;33.97;;;18.43;;
34920;SDS011;21128;50.016;20.002;2022-10-17T04:18:54;32.00;;;19.45;;
34920;SDS011;21128;50.016;20.002;2022-10-17T04:21:35;23.87;;;16.37;;
34920;SDS011;21128;50.016;20.002;2022-10-17T04:24:02;26.33;;;17.30;;
34920;SDS011;21128;50.016;20.002;2022-10-17T04:26:36;29.20;;;18.00;;
34920;SDS011;21128;50.016;20.002;2022-10-17T04:29:04;31.77;;;17.92;;
34920;SDS011;21128;50.016;20.002;2022-10-17T04:31:44;27.07;;;15.87;;
34920;SDS011;21128;50.016;20.002;2022-10-17T04:34:18;36.97;;;16.60;;
34920;SDS011;21128;50.016;20.002;2022-10-17T04:36:51;38.90;;;16.90;;
34920;SDS011;21128;50.016;20.002;2022-10-17T04:39:25;29.53;;;15.47;;
34920;SDS011;21128;50.016;20.002;2022-10-17T04:41:52;28.52;;;16.37;;
34920;SDS011;21128;50.016;20.002;2022-10-17T04:44:25;28.50;;;16.23;;
34920;SDS011;21128;50.016;20.002;2022-10-17T04:46:56;26.20;;;14.67;;
34920;SDS011;21128;50.016;20.002;2022-10-17T04:49:28;38.43;;;17.20;;
34920;SDS011;21128;50.016;20.002;2022-10-17T04:52:08;24.40;;;14.57;;
34920;SDS011;21128;50.016;20.002;2022-10-17T04:57:15;27.57;;;14.27;;
34920;SDS011;21128;50.016;20.002;2022-10-17T04:59:50;24.90;;;14.87;;
34920;SDS011;21128;50.016;20.002;2022-10-17T05:02:30;25.53;;;13.77;;
34920;SDS011;21128;50.016;20.002;2022-10-17T05:04:57;20.33;;;13.93;;
34920;SDS011;21128;50.016;20.002;2022-10-17T05:07:31;24.43;;;15.90;;
34920;SDS011;21128;50.016;20.002;2022-10-17T05:09:58;22.47;;;15.00;;
34920;SDS011;21128;50.016;20.002;2022-10-17T05:15:04;31.77;;;16.40;;
34920;SDS011;21128;50.016;20.002;2022-10-17T05:17:32;27.80;;;17.30;;
34920;SDS011;21128;50.016;20.002;2022-10-17T05:22:32;31.70;;;20.13;;
34920;SDS011;21128;50.016;20.002;2022-10-17T05:25:12;35.20;;;19.97;;
34920;SDS011;21128;50.016;20.002;2022-10-17T05:27:39;30.17;;;19.27;;
34920;SDS011;21128;50.016;20.002;2022-10-17T05:30:06;34.43;;;16.43;;
34920;SDS011;21128;50.016;20.002;2022-10-17T05:32:40;37.13;;;20.00;;
34920;SDS011;21128;50.016;20.002;2022-10-17T05:35:13;30.40;;;18.55;;
34920;SDS011;21128;50.016;20.002;2022-10-17T05:37:47;38.60;;;20.23;;
34920;SDS011;21128;50.016;20.002;2022-10-17T05:40:27;37.77;;;19.80;;
34920;SDS011;21128;50.016;20.002;2022-10-17T05:42:54;40.67;;;20.03;;
34920;SDS011;21128;50.016;20.002;2022-10-17T05:45:34;38.17;;;21.40;;
34920;SDS011;21128;50.016;20.002;2022-10-17T05:48:08;38.13;;;22.90;;
34920;SDS011;21128;50.016;20.002;2022-10-17T05:53:14;28.47;;;18.03;;
34920;SDS011;21128;50.016;20.002;2022-10-17T05:56:03;37.63;;;20.57;;
34920;SDS011;21128;50.016;20.002;2022-10-17T05:58:39;41.20;;;17.70;;
34920;SDS011;21128;50.016;20.002;2022-10-17T06:01:08;36.90;;;18.67;;
34920;SDS011;21128;50.016;20.002;2022-10-17T06:03:49;41.27;;;19.33;;
34920;SDS011;21128;50.016;20.002;2022-10-17T06:06:16;48.67;;;21.13;;
34920;SDS011;21128;50.016;20.002;2022-10-17T06:08:50;51.90;;;19.83;;
34920;SDS011;21128;50.016;20.002;2022-10-17T06:11:17;57.30;;;21.03;;
34920;SDS011;21128;50.016;20.002;2022-10-17T06:13:51;86.90;;;24.35;;
34920;SDS011;21128;50.016;20.002;2022-10-17T06:16:24;137.27;;;28.07;;
34920;SDS011;21128;50.016;20.002;2022-10-17T06:18:51;57.07;;;22.63;;
34920;SDS011;21128;50.016;20.002;2022-10-17T06:21:25;49.83;;;22.93;;
34920;SDS011;21128;50.016;20.002;2022-10-17T06:24:06;54.70;;;22.73;;
34920;SDS011;21128;50.016;20.002;2022-10-17T06:26:33;45.63;;;22.80;;
34920;SDS011;21128;50.016;20.002;2022-10-17T06:29:07;51.70;;;22.97;;
34920;SDS011;21128;50.016;20.002;2022-10-17T06:31:47;58.80;;;22.70;;
34920;SDS011;21128;50.016;20.002;2022-10-17T06:34:14;60.10;;;23.07;;
34920;SDS011;21128;50.016;20.002;2022-10-17T06:37:01;51.00;;;22.67;;
34920;SDS011;21128;50.016;20.002;2022-10-17T06:39:35;58.80;;;22.17;;
34920;SDS011;21128;50.016;20.002;2022-10-17T06:42:15;56.57;;;21.80;;
34920;SDS011;21128;50.016;20.002;2022-10-17T06:44:42;61.87;;;21.73;;
34920;SDS011;21128;50.016;20.002;2022-10-17T06:47:16;53.93;;;21.50;;
34920;SDS011;21128;50.016;20.002;2022-10-17T06:52:22;44.67;;;21.10;;
34920;SDS011;21128;50.016;20.002;2022-10-17T06:54:49;53.50;;;21.10;;
34920;SDS011;21128;50.016;20.002;2022-10-17T06:57:17;54.17;;;22.33;;
34920;SDS011;21128;50.016;20.002;2022-10-17T06:59:44;41.17;;;20.87;;
34920;SDS011;21128;50.016;20.002;2022-10-17T07:02:11;43.63;;;20.57;;
34920;SDS011;21128;50.016;20.002;2022-10-17T07:04:38;39.95;;;20.80;;
34920;SDS011;21128;50.016;20.002;2022-10-17T07:07:05;44.27;;;23.60;;
34920;SDS011;21128;50.016;20.002;2022-10-17T07:09:31;54.90;;;23.87;;
34920;SDS011;21128;50.016;20.002;2022-10-17T07:11:58;66.92;;;25.75;;
34920;SDS011;21128;50.016;20.002;2022-10-17T07:14:25;68.53;;;24.77;;
34920;SDS011;21128;50.016;20.002;2022-10-17T07:17:03;70.13;;;26.20;;
34920;SDS011;21128;50.016;20.002;2022-10-17T07:19:30;73.57;;;24.33;;
34920;SDS011;21128;50.016;20.002;2022-10-17T07:21:57;74.93;;;26.00;;
34920;SDS011;21128;50.016;20.002;2022-10-17T07:24:24;72.20;;;26.87;;
34920;SDS011;21128;50.016;20.002;2022-10-17T07:26:51;76.10;;;27.10;;
34920;SDS011;21128;50.016;20.002;2022-10-17T07:29:18;74.83;;;25.23;;
34920;SDS011;21128;50.016;20.002;2022-10-17T07:31:44;76.40;;;26.53;;
34920;SDS011;21128;50.016;20.002;2022-10-17T07:34:14;96.20;;;27.13;;
34920;SDS011;21128;50.016;20.002;2022-10-17T07:36:54;82.47;;;24.57;;
34920;SDS011;21128;50.016;20.002;2022-10-17T07:39:28;83.10;;;24.40;;
34920;SDS011;21128;50.016;20.002;2022-10-17T07:41:55;79.07;;;25.23;;
34920;SDS011;21128;50.016;20.002;2022-10-17T07:44:35;84.00;;;25.10;;
34920;SDS011;21128;50.016;20.002;2022-10-17T07:47:02;78.90;;;24.93;;
34920;SDS011;21128;50.016;20.002;2022-10-17T07:49:36;89.87;;;22.93;;
34920;SDS011;21128;50.016;20.002;2022-10-17T07:52:14;71.27;;;23.40;;
34920;SDS011;21128;50.016;20.002;2022-10-17T07:54:48;82.20;;;24.23;;
34920;SDS011;21128;50.016;20.002;2022-10-17T07:57:15;81.83;;;23.00;;
34920;SDS011;21128;50.016;20.002;2022-10-17T07:59:49;70.80;;;22.57;;
34920;SDS011;21128;50.016;20.002;2022-10-17T08:02:29;67.23;;;23.43;;
34920;SDS011;21128;50.016;20.002;2022-10-17T08:04:56;77.27;;;23.77;;
34920;SDS011;21128;50.016;20.002;2022-10-17T08:07:30;78.73;;;25.17;;
34920;SDS011;21128;50.016;20.002;2022-10-17T08:10:11;73.00;;;23.37;;
34920;SDS011;21128;50.016;20.002;2022-10-17T08:12:39;70.90;;;23.03;;
34920;SDS011;21128;50.016;20.002;2022-10-17T08:15:26;70.03;;;22.60;;
34920;SDS011;21128;50.016;20.002;2022-10-17T08:18:06;69.10;;;23.50;;
34920;SDS011;21128;50.016;20.002;2022-10-17T08:20:43;73.87;;;23.97;;
34920;SDS011;21128;50.016;20.002;2022-10-17T08:23:23;86.40;;;23.40;;
34920;SDS011;21128;50.016;20.002;2022-10-17T08:25:50;97.10;;;22.50;;
34920;SDS011;21128;50.016;20.002;2022-10-17T08:28:24;79.50;;;22.97;;
34920;SDS011;21128;50.016;20.002;2022-10-17T08:31:04;76.57;;;21.67;;
34920;SDS011;21128;50.016;20.002;2022-10-17T08:33:32;80.87;;;21.57;;
34920;SDS011;21128;50.016;20.002;2022-10-17T08:36:07;69.77;;;22.00;;
34920;SDS011;21128;50.016;20.002;2022-10-17T08:38:41;78.85;;;22.60;;
34920;SDS011;21128;50.016;20.002;2022-10-17T08:44:25;79.77;;;21.47;;
34920;SDS011;21128;50.016;20.002;2022-10-17T08:47:27;68.67;;;22.07;;
34920;SDS011;21128;50.016;20.002;2022-10-17T08:53:23;67.73;;;21.23;;
34920;SDS011;21128;50.016;20.002;2022-10-17T08:55:54;69.03;;;19.57;;
34920;SDS011;21128;50.016;20.002;2022-10-17T08:58:30;61.70;;;20.47;;
34920;SDS011;21128;50.016;20.002;2022-10-17T09:03:57;57.67;;;20.53;;
34920;SDS011;21128;50.016;20.002;2022-10-17T09:16:27;54.10;;;18.03;;
34920;SDS011;21128;50.016;20.002;2022-10-17T09:19:19;35.07;;;16.40;;
34920;SDS011;21128;50.016;20.002;2022-10-17T09:22:11;49.27;;;16.13;;
34920;SDS011;21128;50.016;20.002;2022-10-17T09:24:48;35.90;;;15.67;;
34920;SDS011;21128;50.016;20.002;2022-10-17T09:30:30;33.65;;;14.78;;
34920;SDS011;21128;50.016;20.002;2022-10-17T09:33:11;32.97;;;15.27;;
34920;SDS011;21128;50.016;20.002;2022-10-17T09:35:50;33.37;;;13.70;;
34920;SDS011;21128;50.016;20.002;2022-10-17T09:38:37;33.77;;;15.30;;
34920;SDS011;21128;50.016;20.002;2022-10-17T09:41:22;30.63;;;12.80;;
34920;SDS011;21128;50.016;20.002;2022-10-17T09:43:57;27.53;;;11.30;;
34920;SDS011;21128;50.016;20.002;2022-10-17T09:46:35;31.47;;;11.63;;
34920;SDS011;21128;50.016;20.002;2022-10-17T09:49:17;21.33;;;12.10;;
34920;SDS011;21128;50.016;20.002;2022-10-17T09:51:55;24.50;;;11.40;;
34920;SDS011;21128;50.016;20.002;2022-10-17T09:54:43;28.97;;;10.67;;
34920;SDS011;21128;50.016;20.002;2022-10-17T09:57:20;17.50;;;10.47;;
34920;SDS011;21128;50.016;20.002;2022-10-17T10:00:03;20.77;;;9.67;;
34920;SDS011;21128;50.016;20.002;2022-10-17T10:02:44;18.27;;;10.20;;
34920;SDS011;21128;50.016;20.002;2022-10-17T10:05:15;21.63;;;10.00;;
34920;SDS011;21128;50.016;20.002;2022-10-17T10:07:59;26.43;;;10.60;;
34920;SDS011;21128;50.016;20.002;2022-10-17T10:10:35;22.87;;;10.17;;
34920;SDS011;21128;50.016;20.002;2022-10-17T10:13:17;23.10;;;9.70;;
34920;SDS011;21128;50.016;20.002;2022-10-17T10:15:48;24.57;;;10.33;;
34920;SDS011;21128;50.016;20.002;2022-10-17T10:18:31;18.60;;;8.93;;
34920;SDS011;21128;50.016;20.002;2022-10-17T10:21:07;24.65;;;8.35;;
34920;SDS011;21128;50.016;20.002;2022-10-17T10:24:04;23.50;;;9.20;;
34920;SDS011;21128;50.016;20.002;2022-10-17T10:26:47;22.03;;;9.30;;
34920;SDS011;21128;50.016;20.002;2022-10-17T10:29:23;17.57;;;8.00;;
34920;SDS011;21128;50.016;20.002;2022-10-17T10:34:53;19.90;;;8.57;;
34920;SDS011;21128;50.016;20.002;2022-10-17T10:37:34;17.87;;;7.23;;
34920;SDS011;21128;50.016;20.002;2022-10-17T10:42:49;19.77;;;7.80;;
34920;SDS011;21128;50.016;20.002;2022-10-17T10:47:53;12.93;;;7.47;;
34920;SDS011;21128;50.016;20.002;2022-10-17T10:53:08;15.13;;;7.97;;
34920;SDS011;21128;50.016;20.002;2022-10-17T10:55:52;18.27;;;7.90;;
34920;SDS011;21128;50.016;20.002;2022-10-17T10:58:40;14.20;;;7.07;;
34920;SDS011;21128;50.016;20.002;2022-10-17T11:04:51;16.10;;;7.97;;
34920;SDS011;21128;50.016;20.002;2022-10-17T11:07:13;13.50;;;7.00;;
34920;SDS011;21128;50.016;20.002;2022-10-17T11:09:57;13.93;;;6.87;;
34920;SDS011;21128;50.016;20.002;2022-10-17T11:12:26;14.97;;;6.63;;
34920;SDS011;21128;50.016;20.002;2022-10-17T11:25:51;13.63;;;6.50;;
34920;SDS011;21128;50.016;20.002;2022-10-17T11:28:20;10.43;;;6.40;;
34920;SDS011;21128;50.016;20.002;2022-10-17T11:30:50;10.20;;;6.20;;
34920;SDS011;21128;50.016;20.002;2022-10-17T11:33:26;16.27;;;5.93;;
34920;SDS011;21128;50.016;20.002;2022-10-17T11:36:03;6.80;;;5.07;;
34920;SDS011;21128;50.016;20.002;2022-10-17T11:38:46;7.83;;;5.00;;
34920;SDS011;21128;50.016;20.002;2022-10-17T11:41:46;9.40;;;5.10;;
34920;SDS011;21128;50.016;20.002;2022-10-17T11:44:34;8.73;;;6.03;;
34920;SDS011;21128;50.016;20.002;2022-10-17T11:49:49;7.83;;;5.13;;
34920;SDS011;21128;50.016;20.002;2022-10-17T11:52:43;6.97;;;5.17;;
34920;SDS011;21128;50.016;20.002;2022-10-17T11:55:28;8.77;;;5.73;;
34920;SDS011;21128;50.016;20.002;2022-10-17T12:06:36;9.20;;;5.50;;
34920;SDS011;21128;50.016;20.002;2022-10-17T12:09:34;8.13;;;5.30;;
34920;SDS011;21128;50.016;20.002;2022-10-17T12:12:32;8.57;;;4.53;;
34920;SDS011;21128;50.016;20.002;2022-10-17T12:25:49;8.97;;;6.10;;
34920;SDS011;21128;50.016;20.002;2022-10-17T12:28:29;10.53;;;6.33;;
34920;SDS011;21128;50.016;20.002;2022-10-17T12:33:49;9.73;;;5.30;;
34920;SDS011;21128;50.016;20.002;2022-10-17T12:46:41;11.97;;;5.90;;
34920;SDS011;21128;50.016;20.002;2022-10-17T12:52:19;10.63;;;5.70;;
34920;SDS011;21128;50.016;20.002;2022-10-17T12:57:31;8.83;;;6.17;;
34920;SDS011;21128;50.016;20.002;2022-10-17T13:00:03;7.95;;;5.47;;
34920;SDS011;21128;50.016;20.002;2022-10-17T13:02:40;8.03;;;5.63;;
34920;SDS011;21128;50.016;20.002;2022-10-17T13:05:10;10.67;;;6.30;;
34920;SDS011;21128;50.016;20.002;2022-10-17T13:07:54;12.73;;;6.10;;
34920;SDS011;21128;50.016;20.002;2022-10-17T13:10:24;10.67;;;6.23;;
34920;SDS011;21128;50.016;20.002;2022-10-17T13:13:05;10.40;;;6.83;;
34920;SDS011;21128;50.016;20.002;2022-10-17T13:15:44;7.60;;;5.70;;
34920;SDS011;21128;50.016;20.002;2022-10-17T13:18:20;11.23;;;6.63;;
34920;SDS011;21128;50.016;20.002;2022-10-17T13:23:34;11.83;;;6.30;;
34920;SDS011;21128;50.016;20.002;2022-10-17T13:28:33;7.53;;;6.10;;
34920;SDS011;21128;50.016;20.002;2022-10-17T13:31:00;14.00;;;6.50;;
34920;SDS011;21128;50.016;20.002;2022-10-17T13:33:32;10.50;;;6.53;;
34920;SDS011;21128;50.016;20.002;2022-10-17T13:36:02;11.80;;;6.75;;
34920;SDS011;21128;50.016;20.002;2022-10-17T13:38:32;8.83;;;6.37;;
34920;SDS011;21128;50.016;20.002;2022-10-17T13:41:14;9.87;;;6.17;;
34920;SDS011;21128;50.016;20.002;2022-10-17T13:43:44;12.17;;;6.10;;
34920;SDS011;21128;50.016;20.002;2022-10-17T13:46:15;8.60;;;5.78;;
34920;SDS011;21128;50.016;20.002;2022-10-17T13:48:52;8.30;;;6.20;;
34920;SDS011;21128;50.016;20.002;2022-10-17T13:51:26;8.67;;;6.13;;
34920;SDS011;21128;50.016;20.002;2022-10-17T13:53:53;13.10;;;6.20;;
34920;SDS011;21128;50.016;20.002;2022-10-17T13:56:26;9.23;;;6.57;;
34920;SDS011;21128;50.016;20.002;2022-10-17T13:59:00;9.40;;;6.90;;
34920;SDS011;21128;50.016;20.002;2022-10-17T14:01:34;10.27;;;6.47;;
34920;SDS011;21128;50.016;20.002;2022-10-17T14:04:03;12.73;;;6.97;;
34920;SDS011;21128;50.016;20.002;2022-10-17T14:06:30;11.53;;;7.43;;
34920;SDS011;21128;50.016;20.002;2022-10-17T14:08:58;17.67;;;7.00;;
34920;SDS011;21128;50.016;20.002;2022-10-17T14:11:40;8.83;;;6.40;;
34920;SDS011;21128;50.016;20.002;2022-10-17T14:14:16;7.03;;;5.60;;
34920;SDS011;21128;50.016;20.002;2022-10-17T14:16:45;10.10;;;6.40;;
34920;SDS011;21128;50.016;20.002;2022-10-17T14:19:17;14.97;;;6.37;;
34920;SDS011;21128;50.016;20.002;2022-10-17T14:21:55;12.00;;;6.33;;
34920;SDS011;21128;50.016;20.002;2022-10-17T14:24:40;9.13;;;6.40;;
34920;SDS011;21128;50.016;20.002;2022-10-17T14:32:54;10.80;;;6.67;;
34920;SDS011;21128;50.016;20.002;2022-10-17T14:35:26;12.43;;;6.67;;
34920;SDS011;21128;50.016;20.002;2022-10-17T14:37:56;13.20;;;7.50;;
34920;SDS011;21128;50.016;20.002;2022-10-17T14:40:26;11.47;;;7.40;;
34920;SDS011;21128;50.016;20.002;2022-10-17T14:43:03;13.13;;;7.10;;
34920;SDS011;21128;50.016;20.002;2022-10-17T14:45:38;13.33;;;6.67;;
34920;SDS011;21128;50.016;20.002;2022-10-17T14:48:16;12.67;;;6.93;;
34920;SDS011;21128;50.016;20.002;2022-10-17T14:56:48;13.23;;;8.37;;
34920;SDS011;21128;50.016;20.002;2022-10-17T14:59:15;12.03;;;7.67;;
34920;SDS011;21128;50.016;20.002;2022-10-17T15:01:48;14.43;;;7.55;;
34920;SDS011;21128;50.016;20.002;2022-10-17T15:04:16;14.30;;;7.40;;
34920;SDS011;21128;50.016;20.002;2022-10-17T15:06:56;15.37;;;8.50;;
34920;SDS011;21128;50.016;20.002;2022-10-17T15:09:23;16.27;;;7.93;;
34920;SDS011;21128;50.016;20.002;2022-10-17T15:11:54;22.13;;;8.77;;
34920;SDS011;21128;50.016;20.002;2022-10-17T15:14:32;16.70;;;8.67;;
34920;SDS011;21128;50.016;20.002;2022-10-17T15:17:14;16.00;;;9.07;;
34920;SDS011;21128;50.016;20.002;2022-10-17T15:19:43;14.53;;;9.27;;
34920;SDS011;21128;50.016;20.002;2022-10-17T15:22:17;17.37;;;8.87;;
34920;SDS011;21128;50.016;20.002;2022-10-17T15:24:57;16.57;;;9.33;;
34920;SDS011;21128;50.016;20.002;2022-10-17T15:27:24;18.47;;;9.50;;
34920;SDS011;21128;50.016;20.002;2022-10-17T15:29:58;18.80;;;9.05;;
34920;SDS011;21128;50.016;20.002;2022-10-17T15:32:38;16.13;;;8.73;;
34920;SDS011;21128;50.016;20.002;2022-10-17T15:35:05;15.27;;;8.97;;
34920;SDS011;21128;50.016;20.002;2022-10-17T15:37:46;20.70;;;11.37;;
34920;SDS011;21128;50.016;20.002;2022-10-17T15:40:15;24.40;;;11.50;;
34920;SDS011;21128;50.016;20.002;2022-10-17T15:42:50;26.50;;;12.20;;
34920;SDS011;21128;50.016;20.002;2022-10-17T15:45:23;26.70;;;11.07;;
34920;SDS011;21128;50.016;20.002;2022-10-17T15:47:52;29.17;;;14.83;;
34920;SDS011;21128;50.016;20.002;2022-10-17T15:50:41;22.53;;;11.23;;
34920;SDS011;21128;50.016;20.002;2022-10-17T15:53:12;20.53;;;11.30;;
34920;SDS011;21128;50.016;20.002;2022-10-17T15:55:45;24.00;;;11.23;;
34920;SDS011;21128;50.016;20.002;2022-10-17T15:58:31;21.53;;;9.90;;
34920;SDS011;21128;50.016;20.002;2022-10-17T16:01:21;18.77;;;10.23;;
34920;SDS011;21128;50.016;20.002;2022-10-17T16:03:50;21.37;;;10.17;;
34920;SDS011;21128;50.016;20.002;2022-10-17T16:06:18;17.40;;;10.50;;
34920;SDS011;21128;50.016;20.002;2022-10-17T16:08:46;20.70;;;10.83;;
34920;SDS011;21128;50.016;20.002;2022-10-17T16:11:36;19.70;;;10.70;;
34920;SDS011;21128;50.016;20.002;2022-10-17T16:14:04;21.53;;;10.63;;
34920;SDS011;21128;50.016;20.002;2022-10-17T16:16:42;18.53;;;11.43;;
34920;SDS011;21128;50.016;20.002;2022-10-17T16:19:10;19.03;;;11.50;;
34920;SDS011;21128;50.016;20.002;2022-10-17T16:21:38;20.68;;;11.40;;
34920;SDS011;21128;50.016;20.002;2022-10-17T16:24:08;20.00;;;10.33;;
34920;SDS011;21128;50.016;20.002;2022-10-17T16:26:44;18.45;;;9.88;;
34920;SDS011;21128;50.016;20.002;2022-10-17T16:29:11;16.83;;;9.50;;
34920;SDS011;21128;50.016;20.002;2022-10-17T16:31:39;19.60;;;9.13;;
34920;SDS011;21128;50.016;20.002;2022-10-17T16:34:08;16.77;;;9.30;;
34920;SDS011;21128;50.016;20.002;2022-10-17T16:36:38;17.77;;;8.73;;
34920;SDS011;21128;50.016;20.002;2022-10-17T16:39:06;16.83;;;8.60;;
34920;SDS011;21128;50.016;20.002;2022-10-17T16:41:34;20.17;;;8.73;;
34920;SDS011;21128;50.016;20.002;2022-10-17T16:44:10;14.03;;;8.47;;
34920;SDS011;21128;50.016;20.002;2022-10-17T16:46:40;14.07;;;8.20;;
34920;SDS011;21128;50.016;20.002;2022-10-17T16:49:06;15.67;;;7.60;;
34920;SDS011;21128;50.016;20.002;2022-10-17T16:51:33;16.37;;;8.40;;
34920;SDS011;21128;50.016;20.002;2022-10-17T16:54:01;23.97;;;8.30;;
34920;SDS011;21128;50.016;20.002;2022-10-17T16:56:29;15.60;;;7.60;;
34920;SDS011;21128;50.016;20.002;2022-10-17T16:58:58;13.10;;;7.50;;
34920;SDS011;21128;50.016;20.002;2022-10-17T17:01:26;23.97;;;7.87;;
34920;SDS011;21128;50.016;20.002;2022-10-17T17:03:57;22.33;;;9.00;;
34920;SDS011;21128;50.016;20.002;2022-10-17T17:06:31;23.77;;;9.67;;
34920;SDS011;21128;50.016;20.002;2022-10-17T17:08:58;30.43;;;12.13;;
34920;SDS011;21128;50.016;20.002;2022-10-17T17:11:26;23.70;;;11.73;;
34920;SDS011;21128;50.016;20.002;2022-10-17T17:13:54;29.10;;;13.80;;
34920;SDS011;21128;50.016;20.002;2022-10-17T17:16:23;25.00;;;12.37;;
34920;SDS011;21128;50.016;20.002;2022-10-17T17:18:55;22.67;;;11.90;;
34920;SDS011;21128;50.016;20.002;2022-10-17T17:21:33;22.07;;;10.97;;
34920;SDS011;21128;50.016;20.002;2022-10-17T17:24:19;19.03;;;10.00;;
34920;SDS011;21128;50.016;20.002;2022-10-17T17:26:51;19.70;;;10.03;;
34920;SDS011;21128;50.016;20.002;2022-10-17T17:29:26;21.30;;;10.95;;
34920;SDS011;21128;50.016;20.002;2022-10-17T17:32:05;17.33;;;9.33;;
34920;SDS011;21128;50.016;20.002;2022-10-17T17:34:36;19.30;;;10.23;;